Time;durP1;ratioP1;P1;durP2;ratioP2;P2;SDS_P1;SDS_P2;PMS_P1;PMS_P2;Temp;Humidity;BMP_temperature;BMP_pressure;BME280_temperature;BME280_humidity;BME280_pressure;Samples;Min_cycle;Max_cycle;Signal;HPM_P1;HPM_P2
2022/08/16 00:00:10;;;;;;;33.10;24.10;;;;;;;19.09;81.62;100486.22;5007389;28;20026;-70
2022/08/16 00:02:36;;;;;;;32.72;24.42;;;;;;;19.06;81.85;100494.34;5008780;28;20112;-71
2022/08/16 00:05:05;;;;;;;40.55;26.58;;;;;;;19.06;81.94;100491.56;5006317;28;20117;-70
2022/08/16 00:07:31;;;;;;;35.38;24.35;;;;;;;19.06;81.80;100497.13;4990195;28;20076;-70
2022/08/16 00:09:58;;;;;;;36.90;25.92;;;;;;;19.06;81.83;100494.34;5008408;28;20105;-70
2022/08/16 00:12:25;;;;;;;37.28;25.15;;;;;;;19.07;82.11;100502.41;5007983;28;20121;-70
2022/08/16 00:14:50;;;;;;;32.42;24.38;;;;;;;19.07;81.99;100494.06;5007563;28;20026;-67
2022/08/16 00:17:15;;;;;;;33.25;22.45;;;;;;;19.05;81.67;100498.25;5008454;28;20030;-70
2022/08/16 00:19:41;;;;;;;28.30;20.58;;;;;;;18.97;81.45;100491.41;5005205;28;20030;-70
2022/08/16 00:22:06;;;;;;;26.00;20.70;;;;;;;18.93;81.16;100493.94;5003882;28;20060;-70
2022/08/16 00:24:33;;;;;;;26.65;19.02;;;;;;;18.86;81.58;100487.06;5005269;28;20448;-70
2022/08/16 00:26:59;;;;;;;28.83;19.90;;;;;;;18.78;81.44;100496.88;5005387;28;20106;-70
2022/08/16 00:29:24;;;;;;;27.42;19.95;;;;;;;18.73;81.59;100496.09;5004264;28;20030;-70
2022/08/16 00:31:51;;;;;;;28.77;20.48;;;;;;;18.66;82.63;100508.38;5004989;28;20469;-70
2022/08/16 00:34:17;;;;;;;32.50;20.52;;;;;;;18.58;81.95;100505.41;5011801;28;20088;-70
2022/08/16 00:36:45;;;;;;;31.05;21.65;;;;;;;18.52;82.51;100512.97;5024191;28;20030;-70
2022/08/16 00:39:12;;;;;;;31.58;22.00;;;;;;;18.52;82.45;100510.19;5005306;28;20095;-70
2022/08/16 00:41:37;;;;;;;34.60;24.63;;;;;;;18.58;82.92;100505.41;5004642;28;20049;-70
2022/08/16 00:44:09;;;;;;;37.40;26.58;;;;;;;18.50;83.06;100508.78;5003542;28;20521;-70
2022/08/16 00:46:41;;;;;;;37.47;24.10;;;;;;;18.48;82.72;100520.22;5004535;28;20544;-70
2022/08/16 00:49:09;;;;;;;36.78;26.00;;;;;;;18.38;83.91;100521.13;5004178;28;20025;-70
2022/08/16 00:51:34;;;;;;;;;;;;;;;18.58;80.56;100522.91;4986623;28;20737;-70
2022/08/16 00:53:59;;;;;;;41.03;27.17;;;;;;;18.38;83.77;100517.53;5004350;28;19920;-70
2022/08/16 00:56:30;;;;;;;39.58;26.20;;;;;;;18.35;83.84;100523.69;5003754;28;20053;-70
2022/08/16 00:58:55;;;;;;;34.08;22.98;;;;;;;18.31;83.88;100528.16;5002909;28;20021;-70
2022/08/16 01:01:22;;;;;;;33.60;25.00;;;;;;;18.28;83.81;100525.94;5004306;28;20500;-70
2022/08/16 01:03:51;;;;;;;36.17;23.70;;;;;;;18.18;83.57;100514.91;5004664;28;20044;-70
2022/08/16 01:06:18;;;;;;;33.88;21.98;;;;;;;18.14;82.88;100523.00;5004530;28;20038;-70
2022/08/16 01:08:45;;;;;;;32.75;23.42;;;;;;;18.11;83.48;100521.63;5004635;28;20480;-70
2022/08/16 01:11:12;;;;;;;33.67;22.58;;;;;;;18.07;83.67;100522.50;5004264;28;20480;-70
2022/08/16 01:13:39;;;;;;;33.80;22.40;;;;;;;17.99;84.05;100521.16;5003261;28;20065;-70
2022/08/16 01:16:11;;;;;;;31.60;22.23;;;;;;;17.96;84.40;100515.34;5004450;28;20049;-69
2022/08/16 01:18:46;;;;;;;33.53;23.35;;;;;;;17.94;84.30;100518.41;5005161;28;20037;-70
2022/08/16 01:21:26;;;;;;;34.67;24.15;;;;;;;17.92;84.91;100509.53;5004084;28;20033;-70
2022/08/16 01:24:02;;;;;;;41.13;28.33;;;;;;;17.88;85.63;100514.00;5005925;28;20025;-70
2022/08/16 01:26:30;;;;;;;38.92;25.65;;;;;;;17.82;85.79;100521.53;5024594;28;20029;-70
2022/08/16 01:29:00;;;;;;;35.10;26.13;;;;;;;17.80;85.85;100525.75;5023435;28;20026;-70
2022/08/16 01:31:26;;;;;;;38.97;28.88;;;;;;;17.78;86.53;100519.63;5008918;28;20024;-70
2022/08/16 01:33:52;;;;;;;41.80;30.48;;;;;;;17.77;87.25;100517.97;5003959;28;20034;-70
2022/08/16 01:36:17;;;;;;;41.45;30.23;;;;;;;17.76;87.57;100510.75;5003885;28;20722;-70
2022/08/16 01:38:47;;;;;;;41.60;28.80;;;;;;;17.80;87.91;100517.41;5004508;28;20030;-70
2022/08/16 01:41:17;;;;;;;40.47;29.80;;;;;;;17.76;88.17;100508.81;5003988;28;20033;-70
2022/08/16 01:43:44;;;;;;;39.78;29.00;;;;;;;17.83;87.81;100511.25;5003684;28;20106;-70
2022/08/16 01:46:22;;;;;;;40.40;28.95;;;;;;;17.83;87.66;100509.31;5003473;28;20164;-70
2022/08/16 01:48:53;;;;;;;29.20;21.38;;;;;;;17.76;86.62;100510.75;5004520;28;20038;-70
2022/08/16 01:51:22;;;;;;;34.03;24.23;;;;;;;17.63;86.67;100510.22;5003881;28;20026;-69
2022/08/16 01:53:48;;;;;;;29.75;22.48;;;;;;;17.63;86.42;100513.00;5004325;28;20040;-70
2022/08/16 01:56:13;;;;;;;26.80;21.10;;;;;;;17.58;86.08;100512.19;5003480;28;20030;-70
2022/08/16 01:58:39;;;;;;;31.38;24.15;;;;;;;17.57;87.52;100513.31;5003141;28;20445;-69
2022/08/16 02:01:06;;;;;;;34.25;25.52;;;;;;;17.58;88.57;100518.56;5003423;28;20072;-70
2022/08/16 02:03:32;;;;;;;33.28;25.25;;;;;;;17.59;88.63;100511.94;5003707;28;20045;-70
2022/08/16 02:05:57;;;;;;;30.95;24.65;;;;;;;17.58;88.63;100514.97;5002488;28;20030;-70
2022/08/16 02:08:25;;;;;;;33.13;25.13;;;;;;;17.61;88.72;100509.69;5003764;28;20010;-70
2022/08/16 02:10:51;;;;;;;30.45;23.58;;;;;;;17.62;88.92;100511.34;5003886;28;20026;-69
2022/08/16 02:13:17;;;;;;;26.92;22.52;;;;;;;17.61;89.08;100509.69;5003285;28;20113;-70
2022/08/16 02:15:43;;;;;;;27.33;23.70;;;;;;;17.59;88.62;100506.38;5019501;28;20029;-70
2022/08/16 02:18:09;;;;;;;25.58;22.83;;;;;;;17.60;88.52;100501.66;5023317;28;20480;-70
2022/08/16 02:20:37;;;;;;;23.45;18.92;;;;;;;17.56;87.67;100514.44;5016404;28;20038;-70
2022/08/16 02:23:02;;;;;;;;;;;;;;;17.73;85.30;100505.75;5003081;28;20053;-71
2022/08/16 02:25:28;;;;;;;20.90;16.02;;;;;;;17.51;85.96;100514.47;5003705;28;20382;-70
2022/08/16 02:27:53;;;;;;;19.50;17.40;;;;;;;17.45;86.26;100507.28;5003471;28;20057;-69
2022/08/16 02:30:24;;;;;;;21.05;18.38;;;;;;;17.38;86.71;100513.13;5002811;28;20037;-70
2022/08/16 02:32:49;;;;;;;19.73;16.88;;;;;;;17.27;85.99;100517.88;5003465;28;20030;-70
2022/08/16 02:35:16;;;;;;;19.50;17.40;;;;;;;17.20;86.50;100517.38;5002347;28;20033;-70
2022/08/16 02:37:41;;;;;;;18.30;16.40;;;;;;;17.17;86.10;100515.16;5002906;28;20026;-70
2022/08/16 02:40:09;;;;;;;20.63;17.77;;;;;;;17.21;87.16;100520.97;5002562;28;20469;-70
2022/08/16 02:42:34;;;;;;;21.13;18.92;;;;;;;17.25;87.94;100516.53;5002624;28;20100;-70
2022/08/16 02:44:59;;;;;;;19.42;17.33;;;;;;;17.21;87.36;100505.16;5002470;28;20113;-70
2022/08/16 02:47:25;;;;;;;22.23;17.83;;;;;;;17.17;87.56;100519.88;5002988;28;20461;-70
2022/08/16 02:49:50;;;;;;;19.57;17.47;;;;;;;17.16;88.04;100512.66;5002903;28;20061;-70
2022/08/16 02:52:16;;;;;;;19.63;16.98;;;;;;;17.12;88.05;100518.75;5002881;28;20277;-70
2022/08/16 02:54:41;;;;;;;23.10;20.58;;;;;;;17.15;88.73;100516.56;5002954;28;20033;-70
2022/08/16 02:57:06;;;;;;;21.95;18.75;;;;;;;17.16;89.01;100507.13;5002678;28;20084;-70
2022/08/16 02:59:32;;;;;;;21.50;19.40;;;;;;;17.20;90.29;100500.72;5002365;28;20030;-70
2022/08/16 03:01:58;;;;;;;23.15;20.73;;;;;;;17.21;90.73;100507.09;5002629;28;20026;-70
2022/08/16 03:04:23;;;;;;;22.63;20.42;;;;;;;17.21;90.59;100504.31;5007586;28;20061;-70
2022/08/16 03:06:50;;;;;;;21.05;18.75;;;;;;;17.28;90.32;100504.84;5022249;28;20127;-70
2022/08/16 03:09:15;;;;;;;20.63;18.52;;;;;;;17.25;90.06;100499.88;5023287;28;20436;-70
2022/08/16 03:11:41;;;;;;;19.60;17.67;;;;;;;17.27;89.29;100492.91;5012226;28;20033;-71
2022/08/16 03:14:06;;;;;;;22.33;20.02;;;;;;;17.34;90.35;100498.16;5001821;28;20036;-70
2022/08/16 03:16:31;;;;;;;22.85;19.38;;;;;;;17.37;90.06;100494.81;5003092;28;20107;-70
2022/08/16 03:18:57;;;;;;;21.13;18.90;;;;;;;17.38;90.29;100488.13;5002449;28;20061;-70
2022/08/16 03:21:22;;;;;;;21.38;19.15;;;;;;;17.34;89.89;100498.16;5002191;28;20033;-71
2022/08/16 03:23:48;;;;;;;20.48;18.25;;;;;;;17.31;90.79;100493.19;5003099;28;20030;-70
2022/08/16 03:26:14;;;;;;;21.08;18.42;;;;;;;17.29;89.45;100492.63;5002179;28;20033;-70
2022/08/16 03:28:40;;;;;;;21.27;17.95;;;;;;;17.26;89.78;100485.69;5001900;28;20117;-71
2022/08/16 03:31:05;;;;;;;20.45;18.45;;;;;;;17.28;90.12;100497.34;5001251;28;20057;-70
2022/08/16 03:33:31;;;;;;;22.33;19.85;;;;;;;17.28;90.20;100488.19;5002675;28;20057;-70
2022/08/16 03:35:58;;;;;;;20.67;18.58;;;;;;;17.24;90.29;100498.22;5001197;28;20037;-70
2022/08/16 03:38:26;;;;;;;22.75;20.00;;;;;;;17.32;90.56;100495.66;5005627;28;20020;-70
2022/08/16 03:40:51;;;;;;;22.75;20.35;;;;;;;17.27;90.50;100503.19;5022039;28;20037;-70
2022/08/16 03:43:17;;;;;;;23.02;20.58;;;;;;;17.32;90.84;100505.94;5021813;28;20041;-70
2022/08/16 03:45:42;;;;;;;22.75;20.25;;;;;;;17.34;90.29;100510.09;5022187;28;20612;-70
2022/08/16 03:48:08;;;;;;;24.00;21.55;;;;;;;17.34;90.61;100514.81;5022417;28;20036;-70
2022/08/16 03:50:35;;;;;;;23.90;21.50;;;;;;;17.36;90.50;100507.84;5021246;28;20021;-70
2022/08/16 03:53:01;;;;;;;24.42;21.85;;;;;;;17.34;90.62;100512.06;5021547;28;20536;-70
2022/08/16 03:55:26;;;;;;;25.88;23.17;;;;;;;17.28;90.45;100514.00;5023880;28;20030;-70
2022/08/16 03:57:52;;;;;;;24.38;21.75;;;;;;;17.30;90.52;100520.09;5025666;28;20439;-70
2022/08/16 04:00:25;;;;;;;24.67;21.52;;;;;;;17.32;90.86;100528.13;5025165;28;20620;-70
2022/08/16 04:02:53;;;;;;;27.00;22.35;;;;;;;17.34;90.86;100528.69;5025479;28;20484;-71
2022/08/16 04:05:18;;;;;;;;;;;;;;;17.41;88.23;100525.63;5025315;28;20033;-70
2022/08/16 04:07:44;;;;;;;23.13;18.67;;;;;;;17.08;87.12;100533.47;5025955;28;19917;-70
2022/08/16 04:10:12;;;;;;;23.70;19.67;;;;;;;16.96;88.44;100538.53;5007760;28;20049;-70
2022/08/16 04:12:38;;;;;;;26.02;22.23;;;;;;;16.92;88.72;100542.97;5009165;28;20030;-70
2022/08/16 04:15:06;;;;;;;26.92;21.50;;;;;;;16.85;88.81;100537.72;5004771;28;20132;-70
2022/08/16 04:17:32;;;;;;;29.50;24.08;;;;;;;16.87;89.77;100541.03;5005874;28;20034;-70
2022/08/16 04:19:57;;;;;;;28.50;23.80;;;;;;;16.85;90.28;100546.03;5005681;28;20380;-70
2022/08/16 04:22:23;;;;;;;28.90;25.17;;;;;;;16.84;90.34;100552.69;5004866;28;20378;-70
2022/08/16 04:24:48;;;;;;;31.98;26.02;;;;;;;16.83;91.67;100538.00;5005795;28;20521;-70
2022/08/16 04:27:14;;;;;;;32.05;24.70;;;;;;;16.73;90.33;100542.72;5005720;28;20034;-70
2022/08/16 04:29:39;;;;;;;31.02;23.58;;;;;;;16.64;88.99;100549.91;5004052;28;20107;-70
2022/08/16 04:32:05;;;;;;;33.05;25.38;;;;;;;16.59;89.83;100553.53;5004837;28;20460;-70
2022/08/16 04:34:34;;;;;;;33.97;26.00;;;;;;;16.45;89.97;100549.63;5005646;28;20030;-70
2022/08/16 04:36:59;;;;;;;37.60;27.05;;;;;;;16.43;91.07;100549.09;5004610;28;20110;-70
2022/08/16 04:39:25;;;;;;;36.00;26.00;;;;;;;16.38;90.71;100547.16;5005586;28;20113;-70
2022/08/16 04:41:51;;;;;;;38.05;29.23;;;;;;;16.38;92.19;100541.59;5004777;28;20033;-70
2022/08/16 04:44:16;;;;;;;37.45;29.20;;;;;;;16.40;92.27;100544.91;5013311;28;20038;-70
2022/08/16 04:46:42;;;;;;;37.92;29.55;;;;;;;16.41;92.53;100543.81;5015584;28;20021;-71
2022/08/16 04:49:08;;;;;;;38.00;29.58;;;;;;;16.40;93.00;100550.47;5004621;28;20072;-70
2022/08/16 04:51:34;;;;;;;36.58;28.90;;;;;;;16.42;92.00;100542.69;5004998;28;20029;-70
2022/08/16 04:53:59;;;;;;;43.67;29.63;;;;;;;16.43;92.38;100557.41;5004724;28;20026;-70
2022/08/16 04:56:25;;;;;;;44.42;31.65;;;;;;;16.45;92.76;100556.00;5005033;28;20062;-70
2022/08/16 04:58:50;;;;;;;46.58;32.20;;;;;;;16.49;93.14;100559.06;5004748;28;20120;-70
2022/08/16 05:01:16;;;;;;;42.38;31.23;;;;;;;16.50;93.00;100552.41;5004686;28;20033;-70
2022/08/16 05:03:42;;;;;;;45.97;33.50;;;;;;;16.49;93.53;100559.91;5004830;28;20050;-70
2022/08/16 05:06:08;;;;;;;49.80;33.78;;;;;;;16.51;93.23;100565.97;5002872;28;20044;-70
2022/08/16 05:08:33;;;;;;;48.35;31.90;;;;;;;16.57;92.83;100561.25;5004760;28;20105;-70
2022/08/16 05:11:02;;;;;;;43.95;30.77;;;;;;;16.60;92.86;100567.09;5004386;28;20026;-71
2022/08/16 05:13:28;;;;;;;48.72;34.30;;;;;;;16.66;93.11;100570.69;5003715;28;20029;-70
2022/08/16 05:15:53;;;;;;;47.08;30.98;;;;;;;16.66;92.56;100573.47;5003826;28;20097;-70
2022/08/16 05:18:19;;;;;;;53.58;34.28;;;;;;;16.69;92.56;100566.53;5005003;28;20029;-70
2022/08/16 05:20:44;;;;;;;51.40;34.85;;;;;;;16.73;92.50;100576.84;5004098;28;20500;-70
2022/08/16 05:23:09;;;;;;;52.78;33.75;;;;;;;16.80;92.86;100579.31;4986516;28;20034;-71
2022/08/16 05:25:34;;;;;;;65.20;33.35;;;;;;;16.84;91.76;100584.03;5004310;28;20022;-70
2022/08/16 05:28:00;;;;;;;67.75;34.63;;;;;;;16.85;91.70;100590.41;5003315;28;20030;-70
2022/08/16 05:30:25;;;;;;;68.20;34.13;;;;;;;16.86;91.64;100589.28;5004406;28;20111;-70
2022/08/16 05:32:50;;;;;;;58.10;36.33;;;;;;;16.91;92.30;100594.00;5003862;28;20500;-70
2022/08/16 05:35:16;;;;;;;60.35;36.53;;;;;;;16.95;92.83;100581.25;5019661;28;20026;-70
2022/08/16 05:37:42;;;;;;;61.50;37.10;;;;;;;17.04;92.88;100587.91;5023922;28;20094;-70
2022/08/16 05:40:09;;;;;;;62.17;37.42;;;;;;;17.06;92.97;100589.28;5021698;28;20060;-70
2022/08/16 05:42:35;;;;;;;65.93;42.13;;;;;;;17.12;93.67;100590.09;5003561;28;20049;-70
2022/08/16 05:45:01;;;;;;;71.50;44.17;;;;;;;17.22;93.20;100592.00;5003153;28;20057;-70
2022/08/16 05:47:26;;;;;;;77.80;50.25;;;;;;;17.34;93.38;100592.56;5004144;28;20936;-70
2022/08/16 05:49:52;;;;;;;74.70;49.03;;;;;;;17.49;93.34;100588.91;5003941;28;20485;-70
2022/08/16 05:52:17;;;;;;;82.07;50.38;;;;;;;17.66;92.82;100589.38;5003785;28;20073;-70
2022/08/16 05:54:43;;;;;;;79.00;49.90;;;;;;;17.79;91.89;100597.13;5004282;28;20536;-70
2022/08/16 05:57:08;;;;;;;92.78;50.85;;;;;;;17.89;91.58;100599.00;5003502;28;20066;-70
2022/08/16 05:59:33;;;;;;;81.63;50.05;;;;;;;18.00;90.51;100595.06;5002601;28;20026;-70
2022/08/16 06:01:59;;;;;;;82.65;50.33;;;;;;;18.10;89.84;100596.97;5003739;28;20022;-70
2022/08/16 06:04:24;;;;;;;82.85;49.63;;;;;;;18.18;88.83;100595.53;5003376;28;20044;-70
2022/08/16 06:06:50;;;;;;;79.05;49.33;;;;;;;18.26;88.25;100603.25;5003455;28;20025;-70
2022/08/16 06:09:16;;;;;;;84.18;49.85;;;;;;;18.32;88.10;100602.09;5004167;28;20029;-70
2022/08/16 06:11:43;;;;;;;85.63;50.45;;;;;;;18.38;87.16;100604.56;5003596;28;20370;-71
2022/08/16 06:14:09;;;;;;;83.72;50.03;;;;;;;18.44;87.45;100604.50;5002383;28;20036;-69
2022/08/16 06:16:34;;;;;;;84.13;51.03;;;;;;;18.49;86.29;100608.09;5002250;28;20034;-70
2022/08/16 06:18:59;;;;;;;87.97;49.72;;;;;;;18.56;86.11;100608.59;5003245;28;20083;-70
2022/08/16 06:21:25;;;;;;;80.95;48.65;;;;;;;18.60;86.50;100608.84;5002544;28;20022;-70
2022/08/16 06:23:50;;;;;;;90.13;52.08;;;;;;;18.67;85.55;100615.75;5012463;28;20134;-68
2022/08/16 06:26:15;;;;;;;87.13;50.88;;;;;;;18.73;84.49;100618.53;5022303;28;20034;-70
2022/08/16 06:28:41;;;;;;;91.10;54.08;;;;;;;18.78;84.26;100627.66;5021804;28;20030;-69
2022/08/16 06:31:09;;;;;;;88.75;53.17;;;;;;;18.84;84.61;100617.31;5022302;28;20022;-70
2022/08/16 06:33:34;;;;;;;86.57;51.65;;;;;;;18.93;84.00;100618.34;5022836;28;20029;-70
2022/08/16 06:36:00;;;;;;;88.65;51.75;;;;;;;19.01;83.59;100622.44;5007359;28;20033;-70
2022/08/16 06:38:27;;;;;;;94.15;52.47;;;;;;;19.10;82.50;100627.06;5003443;28;20044;-70
2022/08/16 06:40:52;;;;;;;82.40;50.72;;;;;;;19.21;82.60;100626.97;5002706;28;20109;-71
2022/08/16 06:43:19;;;;;;;86.50;52.10;;;;;;;19.26;82.23;100621.34;5002837;28;20113;-70
2022/08/16 06:45:45;;;;;;;95.15;53.80;;;;;;;19.32;81.43;100620.19;5003167;28;20033;-70
2022/08/16 06:48:10;;;;;;;90.00;52.50;;;;;;;19.38;81.02;100619.00;5002978;28;20342;-70
2022/08/16 06:50:35;;;;;;;84.38;50.45;;;;;;;19.45;81.30;100616.69;5002781;28;20045;-70
2022/08/16 06:53:01;;;;;;;90.93;50.30;;;;;;;19.61;80.83;100615.41;5002402;28;20052;-70
2022/08/16 06:55:27;;;;;;;88.28;52.05;;;;;;;20.15;78.15;100616.97;5002842;28;20029;-71
2022/08/16 06:57:53;;;;;;;84.45;49.42;;;;;;;20.27;77.61;100624.03;5001889;28;20048;-71
2022/08/16 07:00:20;;;;;;;83.38;48.55;;;;;;;20.28;77.00;100628.50;5003263;28;20022;-71
2022/08/16 07:02:45;;;;;;;86.43;51.15;;;;;;;20.32;76.12;100627.59;5003370;28;20022;-71
2022/08/16 07:05:12;;;;;;;85.63;49.53;;;;;;;20.31;76.09;100625.09;5001890;28;20141;-70
2022/08/16 07:07:38;;;;;;;87.13;50.00;;;;;;;20.39;75.98;100633.63;5007240;28;20041;-70
2022/08/16 07:10:06;;;;;;;80.55;50.42;;;;;;;20.51;76.03;100637.94;5022435;28;20365;-69
2022/08/16 07:12:31;;;;;;;87.47;49.67;;;;;;;20.76;75.31;100631.13;5021553;28;20029;-70
2022/08/16 07:14:59;;;;;;;84.18;51.70;;;;;;;20.69;75.26;100626.78;5021561;28;20032;-71
2022/08/16 07:17:24;;;;;;;80.50;49.73;;;;;;;20.67;75.63;100637.41;5022561;28;20115;-70
2022/08/16 07:19:50;;;;;;;85.38;50.45;;;;;;;20.62;75.60;100634.69;5023062;28;20054;-69
2022/08/16 07:22:16;;;;;;;80.80;50.63;;;;;;;20.63;75.77;100649.47;5021837;28;20025;-70
2022/08/16 07:24:43;;;;;;;84.05;51.63;;;;;;;20.86;75.61;100647.72;5022508;28;20613;-70
2022/08/16 07:27:08;;;;;;;86.88;52.47;;;;;;;21.16;73.81;100636.03;5006297;28;20025;-70
2022/08/16 07:29:34;;;;;;;83.15;48.92;;;;;;;21.41;73.24;100647.91;5005713;28;20476;-70
2022/08/16 07:32:00;;;;;;;83.35;50.78;;;;;;;21.56;71.83;100647.59;5005716;28;20029;-70
2022/08/16 07:34:25;;;;;;;87.05;49.97;;;;;;;21.47;72.22;100652.25;5006503;28;20026;-70
2022/08/16 07:36:50;;;;;;;83.38;49.45;;;;;;;21.39;72.54;100656.59;5005963;28;20431;-68
2022/08/16 07:39:16;;;;;;;83.45;50.53;;;;;;;21.31;72.42;100653.69;5006397;28;20025;-70
2022/08/16 07:41:43;;;;;;;83.03;47.33;;;;;;;21.33;73.50;100656.97;5006699;28;20022;-69
2022/08/16 07:44:09;;;;;;;80.38;46.90;;;;;;;21.45;73.06;100665.72;5005741;28;20025;-69
2022/08/16 07:46:34;;;;;;;77.78;47.72;;;;;;;21.63;71.70;100661.16;5005889;28;20370;-70
2022/08/16 07:48:59;;;;;;;81.68;47.25;;;;;;;21.80;71.09;100660.56;5006294;28;20473;-69
2022/08/16 07:51:25;;;;;;;76.32;46.33;;;;;;;21.92;71.39;100661.69;5006098;28;20105;-70
2022/08/16 07:53:50;;;;;;;76.63;45.70;;;;;;;21.94;70.65;100661.38;5006552;28;20767;-68
2022/08/16 07:56:17;;;;;;;78.00;47.20;;;;;;;21.89;69.64;100651.13;5005704;28;20133;-69
2022/08/16 07:58:43;;;;;;;73.88;44.97;;;;;;;21.89;70.23;100665.09;5005584;28;20507;-69
2022/08/16 08:01:09;;;;;;;73.22;45.97;;;;;;;21.93;70.52;100663.34;5005611;28;20033;-69
2022/08/16 08:03:35;;;;;;;73.68;44.83;;;;;;;21.93;70.13;100665.31;5016668;28;20668;-70
2022/08/16 08:06:00;;;;;;;66.32;42.78;;;;;;;21.98;70.14;100662.41;5025315;28;20029;-69
2022/08/16 08:08:26;;;;;;;68.30;43.78;;;;;;;22.03;69.64;100663.13;5025897;28;20197;-69
2022/08/16 08:10:51;;;;;;;72.72;45.38;;;;;;;22.08;68.86;100665.00;5024450;28;20112;-69
2022/08/16 08:13:16;;;;;;;61.28;41.45;;;;;;;22.16;67.89;100669.06;5025324;28;20132;-69
2022/08/16 08:15:44;;;;;;;65.85;39.70;;;;;;;22.19;66.80;100672.06;5025867;28;20108;-69
2022/08/16 08:18:09;;;;;;;61.72;40.75;;;;;;;22.24;67.06;100665.53;5024924;28;20032;-70
2022/08/16 08:20:34;;;;;;;63.67;39.80;;;;;;;22.31;66.12;100670.72;5008311;28;20412;-70
2022/08/16 08:23:00;;;;;;;58.47;38.03;;;;;;;22.35;66.52;100674.50;5005696;28;20280;-69
2022/08/16 08:25:26;;;;;;;57.55;38.08;;;;;;;22.47;65.86;100680.41;5005429;28;20037;-70
2022/08/16 08:27:51;;;;;;;52.25;36.15;;;;;;;22.53;64.74;100674.38;5004285;28;20432;-70
2022/08/16 08:30:17;;;;;;;50.70;33.90;;;;;;;22.68;64.76;100675.16;5006001;28;20033;-70
2022/08/16 08:32:42;;;;;;;50.67;34.15;;;;;;;22.75;62.71;100664.34;5005787;28;20025;-70
2022/08/16 08:35:10;;;;;;;54.63;36.17;;;;;;;22.83;62.40;100676.78;5003955;28;20080;-70
2022/08/16 08:37:36;;;;;;;50.05;33.35;;;;;;;22.87;62.16;100666.59;5004841;28;20030;-70
2022/08/16 08:40:04;;;;;;;53.17;33.95;;;;;;;22.92;62.74;100669.31;5004456;28;20088;-70
2022/08/16 08:42:30;;;;;;;45.97;32.05;;;;;;;23.08;61.67;100667.75;5004290;28;20029;-70
2022/08/16 08:44:55;;;;;;;43.40;30.10;;;;;;;23.21;61.38;100678.06;5005063;28;20087;-70
2022/08/16 08:47:21;;;;;;;44.00;29.25;;;;;;;23.40;61.48;100675.03;5005565;28;20273;-68
2022/08/16 08:49:47;;;;;;;43.72;31.10;;;;;;;23.49;60.21;100678.72;5005396;28;20029;-70
2022/08/16 08:52:12;;;;;;;45.97;31.48;;;;;;;23.69;59.91;100682.97;5006667;28;20033;-70
2022/08/16 08:54:37;;;;;;;39.60;28.35;;;;;;;23.86;58.86;100684.19;5013200;28;20490;-70
2022/08/16 08:57:04;;;;;;;40.83;26.87;;;;;;;24.00;58.65;100682.94;5005182;28;20034;-70
2022/08/16 08:59:30;;;;;;;36.17;26.00;;;;;;;24.23;57.64;100685.63;5004144;28;20276;-70
2022/08/16 09:01:56;;;;;;;34.33;26.10;;;;;;;24.39;57.48;100683.25;5004390;28;20025;-70
2022/08/16 09:04:21;;;;;;;41.13;25.10;;;;;;;24.57;56.17;100684.91;5005045;28;20116;-70
2022/08/16 09:06:46;;;;;;;34.22;24.15;;;;;;;24.71;56.09;100685.56;5004283;28;20026;-70
2022/08/16 09:09:12;;;;;;;33.30;25.13;;;;;;;24.94;55.77;100679.78;5004513;28;20026;-70
2022/08/16 09:11:38;;;;;;;34.38;24.52;;;;;;;25.06;55.27;100680.78;5005015;28;20371;-69
2022/08/16 09:14:04;;;;;;;34.03;22.70;;;;;;;25.46;55.49;100682.53;5003687;28;20040;-70
2022/08/16 09:16:31;;;;;;;29.02;22.20;;;;;;;25.58;53.38;100677.03;5004287;28;20025;-70
2022/08/16 09:18:57;;;;;;;36.30;25.08;;;;;;;25.93;52.11;100688.19;5004626;28;20036;-70
2022/08/16 09:21:22;;;;;;;29.60;20.73;;;;;;;26.81;50.94;100687.31;5013735;28;20033;-70
2022/08/16 09:23:47;;;;;;;26.83;21.40;;;;;;;27.86;47.23;100685.91;5024464;28;20029;-69
2022/08/16 09:26:16;;;;;;;30.17;21.27;;;;;;;29.15;43.75;100698.47;5023356;28;20044;-69
2022/08/16 09:28:43;;;;;;;28.02;18.88;;;;;;;30.35;40.88;100699.22;5017256;28;20358;-71
2022/08/16 09:31:10;;;;;;;23.30;17.70;;;;;;;31.13;39.32;100708.69;5004141;28;20022;-70
2022/08/16 09:33:35;;;;;;;21.42;16.98;;;;;;;31.90;36.98;100694.41;5004600;28;20025;-70
2022/08/16 09:36:00;;;;;;;18.90;15.60;;;;;;;32.72;35.93;100700.56;5003392;28;20030;-70
2022/08/16 09:38:26;;;;;;;17.50;13.88;;;;;;;33.50;34.59;100695.88;5003955;28;20034;-68
2022/08/16 09:40:54;;;;;;;18.70;14.32;;;;;;;34.18;32.87;100695.72;5006960;28;20029;-69
2022/08/16 09:43:20;;;;;;;19.00;14.23;;;;;;;34.62;31.19;100703.34;5023470;28;20056;-68
2022/08/16 09:45:46;;;;;;;21.77;13.75;;;;;;;35.34;30.58;100705.34;5020476;28;20049;-68
2022/08/16 09:48:13;;;;;;;20.30;13.73;;;;;;;35.82;29.02;100705.03;5004023;28;20170;-68
2022/08/16 09:50:42;;;;;;;16.77;12.43;;;;;;;36.46;28.74;100713.66;5003562;28;20109;-68
2022/08/16 09:53:12;;;;;;;19.13;14.18;;;;;;;35.82;28.35;100705.84;5003302;28;20112;-68
2022/08/16 09:55:38;;;;;;;19.48;13.45;;;;;;;35.44;28.53;100704.56;5003802;28;20431;-67
2022/08/16 09:58:04;;;;;;;16.83;12.95;;;;;;;34.93;29.43;100705.56;5001801;28;20033;-68
2022/08/16 10:00:29;;;;;;;15.70;12.45;;;;;;;35.08;29.06;100703.63;5003510;28;20432;-68
2022/08/16 10:02:55;;;;;;;17.85;12.00;;;;;;;35.93;27.87;100702.19;5003670;28;20026;-68
2022/08/16 10:05:20;;;;;;;19.27;12.23;;;;;;;36.07;27.25;100700.19;5003260;28;20551;-69
2022/08/16 10:07:50;;;;;;;15.65;11.18;;;;;;;36.36;27.42;100694.44;5003812;28;20311;-68
2022/08/16 10:10:16;;;;;;;15.40;11.75;;;;;;;37.21;25.65;100693.41;5004130;28;20823;-68
2022/08/16 10:15:28;;;;;;;15.45;11.15;;;;;;;38.63;24.64;100694.34;5003624;28;20821;-68
2022/08/16 10:17:54;;;;;;;16.50;11.43;;;;;;;38.54;24.48;100701.84;5003587;28;20037;-69
2022/08/16 10:20:20;;;;;;;14.68;10.82;;;;;;;38.01;24.99;100706.81;5003748;28;20034;-68
2022/08/16 10:22:45;;;;;;;18.38;10.73;;;;;;;38.08;25.12;100691.59;5003689;28;20044;-68
2022/08/16 10:25:12;;;;;;;14.18;10.55;;;;;;;38.10;24.78;100691.97;5002955;28;20255;-68
2022/08/16 10:27:37;;;;;;;14.05;10.05;;;;;;;38.01;24.59;100694.53;5002928;28;20465;-68
2022/08/16 10:30:05;;;;;;;16.13;10.90;;;;;;;37.40;24.49;100698.63;5002984;28;20030;-69
2022/08/16 10:32:31;;;;;;;19.27;10.52;;;;;;;37.37;24.71;100701.53;5004588;28;20467;-68
2022/08/16 10:34:57;;;;;;;14.50;10.00;;;;;;;37.45;24.88;100703.09;5022609;28;20042;-69
2022/08/16 10:37:22;;;;;;;13.98;9.35;;;;;;;37.04;25.47;100700.81;5012966;28;20021;-68
2022/08/16 10:39:47;;;;;;;11.63;8.93;;;;;;;36.52;25.97;100696.88;5003827;28;20018;-68
2022/08/16 10:42:12;;;;;;;13.93;9.80;;;;;;;36.27;26.38;100700.56;5001798;28;20692;-68
2022/08/16 10:44:38;;;;;;;12.33;8.63;;;;;;;36.45;25.98;100694.88;5007307;28;20284;-68
2022/08/16 10:47:04;;;;;;;13.17;8.33;;;;;;;36.23;26.20;100716.91;5002884;28;20281;-68
2022/08/16 10:49:30;;;;;;;10.60;7.32;;;;;;;35.39;26.89;100707.81;5003241;28;20308;-68
2022/08/16 10:51:55;;;;;;;13.85;8.60;;;;;;;34.26;28.49;100708.78;5002398;28;20053;-68
2022/08/16 10:54:21;;;;;;;11.73;8.47;;;;;;;34.53;28.07;100707.38;5002885;28;20037;-69
2022/08/16 10:56:47;;;;;;;11.18;8.48;;;;;;;35.13;26.88;100708.94;5002154;28;20899;-70
2022/08/16 10:59:13;;;;;;;13.60;8.32;;;;;;;36.07;26.78;100707.94;5003054;28;20021;-68
2022/08/16 11:01:39;;;;;;;12.32;8.50;;;;;;;37.01;25.50;100713.13;5002484;28;20062;-68
2022/08/16 11:04:05;;;;;;;10.00;7.40;;;;;;;37.40;24.78;100715.00;5002366;28;20034;-68
2022/08/16 11:06:31;;;;;;;10.98;7.40;;;;;;;37.24;24.18;100711.78;5002411;28;20515;-68